Time;durP1;ratioP1;P1;durP2;ratioP2;P2;SDS_P1;SDS_P2;PMS_P1;PMS_P2;Temp;Humidity;BMP_temperature;BMP_pressure;BME280_temperature;BME280_humidity;BME280_pressure;Samples;Min_cycle;Max_cycle;Signal;HPM_P1;HPM_P2
2022/08/30 00:02:59;;;;;;;15.17;13.80;;;18.80;99.90;;;;;;5081748;28;21010;-67
2022/08/30 00:05:27;;;;;;;15.10;13.87;;;18.80;99.90;;;;;;5083098;28;20451;-67
2022/08/30 00:07:54;;;;;;;15.40;13.63;;;18.80;99.90;;;;;;5078923;28;20469;-67
2022/08/30 00:10:21;;;;;;;14.70;13.80;;;18.80;99.90;;;;;;5087197;28;20469;-68
2022/08/30 00:12:48;;;;;;;15.10;14.10;;;18.70;99.90;;;;;;5083211;28;20469;-67
2022/08/30 00:15:15;;;;;;;14.83;13.80;;;18.70;99.90;;;;;;5082439;28;20487;-68
2022/08/30 00:17:43;;;;;;;14.67;13.77;;;18.80;99.90;;;;;;5082403;28;20494;-67
2022/08/30 00:20:14;;;;;;;15.00;13.90;;;18.80;99.90;;;;;;5085843;28;20520;-68
2022/08/30 00:22:42;;;;;;;14.70;13.87;;;18.90;99.90;;;;;;5085502;28;20814;-67
2022/08/30 00:25:09;;;;;;;14.50;13.70;;;18.90;99.90;;;;;;5079248;28;20484;-67
2022/08/30 00:27:37;;;;;;;15.63;14.27;;;19.00;99.90;;;;;;5080149;28;20824;-67
2022/08/30 00:30:06;;;;;;;15.27;14.17;;;19.00;99.90;;;;;;5084383;28;20470;-68
2022/08/30 00:32:33;;;;;;;16.60;14.70;;;18.90;99.90;;;;;;5080231;28;20462;-67
2022/08/30 00:35:00;;;;;;;15.30;14.20;;;18.90;99.90;;;;;;5083026;28;21167;-67
2022/08/30 00:37:29;;;;;;;15.57;14.33;;;18.90;99.90;;;;;;5079137;28;20490;-67
2022/08/30 00:39:57;;;;;;;15.77;14.60;;;18.90;99.90;;;;;;5084101;28;20466;-67
2022/08/30 00:42:26;;;;;;;15.33;14.40;;;19.00;99.90;;;;;;5080608;28;20953;-68
2022/08/30 00:44:54;;;;;;;14.90;13.50;;;19.00;99.90;;;;;;5085516;28;20480;-68
2022/08/30 00:47:21;;;;;;;15.17;14.17;;;19.00;99.90;;;;;;5073757;28;20473;-67
2022/08/30 00:49:51;;;;;;;16.20;14.90;;;18.90;99.90;;;;;;5075017;28;20463;-67
2022/08/30 00:52:20;;;;;;;16.20;14.57;;;19.00;99.90;;;;;;5083237;28;20469;-67
2022/08/30 00:54:50;;;;;;;15.67;14.57;;;18.90;99.90;;;;;;5076777;28;20482;-68
2022/08/30 00:57:18;;;;;;;14.97;14.10;;;18.80;99.90;;;;;;5082041;28;20635;-67
2022/08/30 00:59:49;;;;;;;14.83;13.83;;;18.80;99.90;;;;;;5076953;28;20470;-67
2022/08/30 01:02:20;;;;;;;15.60;14.60;;;18.80;99.90;;;;;;5081519;28;20653;-67
2022/08/30 01:04:47;;;;;;;15.00;14.00;;;18.70;99.90;;;;;;5079217;28;20463;-67
2022/08/30 01:07:15;;;;;;;15.40;14.00;;;18.60;99.90;;;;;;5081318;28;20463;-67
2022/08/30 01:09:43;;;;;;;15.83;14.63;;;18.60;99.90;;;;;;5083428;28;20509;-67
2022/08/30 01:12:13;;;;;;;15.50;14.13;;;18.50;99.90;;;;;;5085274;28;20478;-67
2022/08/30 01:14:40;;;;;;;15.23;14.30;;;18.40;99.90;;;;;;5077974;28;20462;-67
2022/08/30 01:17:08;;;;;;;14.90;13.87;;;18.40;99.90;;;;;;5073637;28;20501;-67
2022/08/30 01:19:41;;;;;;;15.90;14.50;;;18.30;99.90;;;;;;5079988;28;20457;-67
2022/08/30 01:22:20;;;;;;;15.17;14.17;;;18.30;99.90;;;;;;5077046;28;21111;-67
2022/08/30 01:24:50;;;;;;;16.00;14.57;;;18.30;99.90;;;;;;5080558;28;20464;-67
2022/08/30 01:27:18;;;;;;;15.33;14.27;;;18.20;99.90;;;;;;5077715;28;20489;-67
2022/08/30 01:29:45;;;;;;;15.13;14.10;;;18.10;99.90;;;;;;5079952;28;20463;-68
2022/08/30 01:32:18;;;;;;;14.63;13.70;;;18.10;99.90;;;;;;5077033;28;20467;-67
2022/08/30 01:34:47;;;;;;;15.60;14.30;;;18.00;99.90;;;;;;5074876;28;20983;-67
2022/08/30 01:37:16;;;;;;;14.73;13.83;;;18.00;99.90;;;;;;5085088;28;20481;-67
2022/08/30 01:39:45;;;;;;;14.77;13.73;;;18.00;99.90;;;;;;5079613;28;20458;-67
2022/08/30 01:42:16;;;;;;;16.10;14.90;;;17.90;99.90;;;;;;5079875;28;20458;-67
2022/08/30 01:44:44;;;;;;;16.17;14.03;;;17.90;99.90;;;;;;5079738;28;20458;-67
2022/08/30 01:47:11;;;;;;;16.17;14.73;;;17.90;99.90;;;;;;5086036;28;20835;-68
2022/08/30 01:49:39;;;;;;;15.70;13.73;;;17.70;99.90;;;;;;5078515;28;20829;-67
2022/08/30 01:52:07;;;;;;;15.53;14.23;;;17.70;99.90;;;;;;5081327;28;20457;-67
2022/08/30 01:54:37;;;;;;;15.50;14.20;;;17.70;99.90;;;;;;5077911;28;20959;-68
2022/08/30 01:57:05;;;;;;;15.33;14.10;;;17.60;99.90;;;;;;5079740;28;20477;-67
2022/08/30 01:59:34;;;;;;;15.40;14.33;;;17.50;99.90;;;;;;5077336;28;20452;-67
2022/08/30 02:02:01;;;;;;;14.77;13.60;;;17.40;99.90;;;;;;5079664;28;20465;-67
2022/08/30 02:04:29;;;;;;;15.57;14.30;;;17.40;99.90;;;;;;5083665;28;20467;-67
2022/08/30 02:06:56;;;;;;;14.73;13.83;;;17.40;99.90;;;;;;5074312;28;20489;-68
2022/08/30 02:09:23;;;;;;;15.20;14.10;;;17.40;99.90;;;;;;5077604;28;20497;-67
2022/08/30 02:11:50;;;;;;;15.17;13.93;;;17.30;99.90;;;;;;5078721;28;20470;-67
2022/08/30 02:14:17;;;;;;;15.10;13.90;;;17.20;99.90;;;;;;5081743;28;20975;-68
2022/08/30 02:16:47;;;;;;;15.37;14.03;;;17.30;99.90;;;;;;5081485;28;20486;-67
2022/08/30 02:19:14;;;;;;;15.00;14.10;;;17.30;99.90;;;;;;5080819;28;20485;-67
2022/08/30 02:21:41;;;;;;;14.83;13.30;;;17.20;99.90;;;;;;5081349;28;20536;-67
2022/08/30 02:24:09;;;;;;;14.87;13.77;;;17.20;99.90;;;;;;5073857;28;20498;-67
2022/08/30 02:26:36;;;;;;;15.60;14.20;;;17.10;99.90;;;;;;5077232;28;20465;-67
2022/08/30 02:29:05;;;;;;;14.87;13.90;;;17.10;99.90;;;;;;5080175;28;20463;-67
2022/08/30 02:31:33;;;;;;;15.37;13.63;;;17.00;99.90;;;;;;5080462;28;20462;-67
2022/08/30 02:34:03;;;;;;;14.30;13.50;;;17.00;99.90;;;;;;5083421;28;20457;-67
2022/08/30 02:36:30;;;;;;;15.60;14.17;;;17.00;99.90;;;;;;5077626;28;20468;-67
2022/08/30 02:38:57;;;;;;;14.73;13.20;;;16.90;99.90;;;;;;5076605;28;20826;-67
2022/08/30 02:41:24;;;;;;;14.80;13.47;;;16.90;99.90;;;;;;5077032;28;20465;-67
2022/08/30 02:43:57;;;;;;;13.73;12.73;;;16.90;99.90;;;;;;5080132;28;20632;-67
2022/08/30 02:46:24;;;;;;;14.37;13.07;;;16.90;99.90;;;;;;5084949;28;20462;-67
2022/08/30 02:48:51;;;;;;;14.70;13.57;;;16.90;99.90;;;;;;5087504;28;20465;-68
2022/08/30 02:51:19;;;;;;;15.10;14.10;;;16.90;99.90;;;;;;5082215;28;20471;-67
2022/08/30 02:53:48;;;;;;;14.63;13.40;;;16.90;99.90;;;;;;5077637;28;20455;-67
2022/08/30 02:56:15;;;;;;;14.10;13.30;;;17.00;99.90;;;;;;5084199;28;20466;-67
2022/08/30 02:58:43;;;;;;;14.40;13.43;;;16.90;99.90;;;;;;5079939;28;20490;-68
2022/08/30 03:01:12;;;;;;;14.23;13.33;;;16.90;99.90;;;;;;5084662;28;20454;-67
2022/08/30 03:03:40;;;;;;;14.77;13.50;;;16.90;99.90;;;;;;5081629;28;20454;-67
2022/08/30 03:06:09;;;;;;;14.87;13.87;;;16.90;99.90;;;;;;5084171;28;20753;-67
2022/08/30 03:08:39;;;;;;;13.93;12.83;;;16.90;99.90;;;;;;5078401;28;20451;-67
2022/08/30 03:11:06;;;;;;;14.67;13.40;;;16.90;99.90;;;;;;5079126;28;20457;-67
2022/08/30 03:13:33;;;;;;;15.20;14.00;;;16.90;99.90;;;;;;5085641;28;20466;-68
2022/08/30 03:16:01;;;;;;;14.37;13.10;;;16.90;99.90;;;;;;5085972;28;20769;-67
2022/08/30 03:18:28;;;;;;;14.47;13.47;;;16.90;99.90;;;;;;5081498;28;20489;-67
2022/08/30 03:20:55;;;;;;;14.47;13.37;;;16.90;99.90;;;;;;5081492;28;20952;-67
2022/08/30 03:23:24;;;;;;;14.83;13.80;;;16.90;99.90;;;;;;5079513;28;20500;-67
2022/08/30 03:25:52;;;;;;;14.73;13.53;;;17.00;99.90;;;;;;5083391;28;20454;-66
2022/08/30 03:28:19;;;;;;;14.77;13.10;;;17.00;99.90;;;;;;5084953;28;20949;-67
2022/08/30 03:30:47;;;;;;;14.40;13.20;;;17.10;99.90;;;;;;5079418;28;20455;-67
2022/08/30 03:33:13;;;;;;;14.77;13.67;;;17.10;99.90;;;;;;5083277;28;20462;-67
2022/08/30 03:35:40;;;;;;;14.30;13.30;;;17.20;99.90;;;;;;5080200;28;20816;-67
2022/08/30 03:38:09;;;;;;;14.10;13.10;;;17.20;99.90;;;;;;5083400;28;20979;-67
2022/08/30 03:40:35;;;;;;;13.53;12.73;;;17.20;99.90;;;;;;5081068;28;20472;-68
2022/08/30 03:43:04;;;;;;;14.80;13.47;;;17.20;99.90;;;;;;5076867;28;20536;-68
2022/08/30 03:45:31;;;;;;;13.67;12.60;;;17.30;99.90;;;;;;5081755;28;20454;-67
2022/08/30 03:47:58;;;;;;;15.23;14.10;;;17.30;99.90;;;;;;5083429;28;20833;-67
2022/08/30 03:50:26;;;;;;;14.23;13.23;;;17.40;99.90;;;;;;5078349;28;20462;-67
2022/08/30 03:52:52;;;;;;;15.00;13.60;;;17.40;99.90;;;;;;5084267;28;20473;-67
2022/08/30 03:55:19;;;;;;;14.60;13.60;;;17.50;99.90;;;;;;5079361;28;20458;-68
2022/08/30 03:57:46;;;;;;;14.83;13.83;;;17.50;99.90;;;;;;5083886;28;20506;-66
2022/08/30 04:00:16;;;;;;;15.13;14.00;;;17.50;99.90;;;;;;5081796;28;20467;-67
2022/08/30 04:02:43;;;;;;;14.80;13.80;;;17.50;99.90;;;;;;5055981;28;20474;-67
2022/08/30 04:05:11;;;;;;;14.27;13.17;;;17.50;99.90;;;;;;5051973;28;20478;-68
2022/08/30 04:07:38;;;;;;;14.80;13.40;;;17.40;99.90;;;;;;5047304;28;20522;-67
2022/08/30 04:10:06;;;;;;;14.63;13.20;;;17.40;99.90;;;;;;5049919;28;21457;-68
2022/08/30 04:12:32;;;;;;;14.37;13.33;;;17.40;99.90;;;;;;5049127;28;20462;-68
2022/08/30 04:15:00;;;;;;;15.57;14.30;;;17.30;99.90;;;;;;5050548;28;21070;-68
2022/08/30 04:17:28;;;;;;;15.23;14.03;;;17.30;99.90;;;;;;5050799;28;20529;-67
2022/08/30 04:19:55;;;;;;;15.20;14.30;;;17.20;99.90;;;;;;5050852;28;20454;-68
2022/08/30 04:22:22;;;;;;;15.07;13.97;;;17.20;99.90;;;;;;5050480;28;20517;-67
2022/08/30 04:24:48;;;;;;;15.53;14.03;;;17.20;99.90;;;;;;5049554;28;20463;-67
2022/08/30 04:27:19;;;;;;;15.63;14.00;;;17.20;99.90;;;;;;5051024;28;20505;-67
2022/08/30 04:29:46;;;;;;;17.30;15.80;;;17.20;99.90;;;;;;5050078;28;21036;-66
2022/08/30 04:32:13;;;;;;;14.77;13.70;;;17.10;99.90;;;;;;5050528;28;20814;-67
2022/08/30 04:34:41;;;;;;;15.47;13.90;;;17.20;99.90;;;;;;5049244;28;20848;-67
2022/08/30 04:37:08;;;;;;;15.03;13.70;;;17.10;99.90;;;;;;5048351;28;20455;-67
2022/08/30 04:39:34;;;;;;;15.57;14.47;;;17.10;99.90;;;;;;5049724;28;21248;-67
2022/08/30 04:42:03;;;;;;;15.10;13.73;;;17.00;99.90;;;;;;5049968;28;20466;-68
2022/08/30 04:44:30;;;;;;;15.10;14.00;;;17.10;99.90;;;;;;5048663;28;20726;-67
2022/08/30 04:46:57;;;;;;;14.60;13.53;;;17.00;99.90;;;;;;5049559;28;20950;-67
2022/08/30 04:49:24;;;;;;;18.37;14.87;;;17.10;99.90;;;;;;5047671;28;20459;-67
2022/08/30 04:51:52;;;;;;;15.50;14.30;;;17.10;99.90;;;;;;5049913;28;20478;-67
2022/08/30 04:54:19;;;;;;;15.57;14.33;;;17.10;99.90;;;;;;5048826;28;20459;-67
2022/08/30 04:56:46;;;;;;;16.37;14.20;;;17.10;99.90;;;;;;5049166;28;20894;-67
2022/08/30 04:59:13;;;;;;;16.10;14.70;;;17.10;99.90;;;;;;5046529;28;20494;-67
2022/08/30 05:01:40;;;;;;;16.17;14.90;;;17.10;99.90;;;;;;5047011;28;20458;-67
2022/08/30 05:04:07;;;;;;;15.37;14.13;;;17.10;99.90;;;;;;5048159;28;20471;-68
2022/08/30 05:06:34;;;;;;;16.17;14.80;;;17.00;99.90;;;;;;5047661;28;20498;-67
2022/08/30 05:09:03;;;;;;;16.20;14.80;;;17.10;99.90;;;;;;5046611;28;20473;-68
2022/08/30 05:11:30;;;;;;;16.50;14.30;;;17.10;99.90;;;;;;5047539;28;20942;-67
2022/08/30 05:13:57;;;;;;;15.90;14.60;;;17.20;99.90;;;;;;5047860;28;21000;-67
2022/08/30 05:16:23;;;;;;;16.67;15.07;;;17.30;99.90;;;;;;5047641;28;20494;-67
2022/08/30 05:18:52;;;;;;;15.57;14.47;;;17.40;99.90;;;;;;5047795;28;20532;-67
2022/08/30 05:21:21;;;;;;;15.20;14.10;;;17.40;99.90;;;;;;5047995;28;20455;-67
2022/08/30 05:23:48;;;;;;;16.00;14.90;;;17.50;99.90;;;;;;5046264;28;20938;-67
2022/08/30 05:26:18;;;;;;;15.33;14.40;;;17.50;99.90;;;;;;5046349;28;20490;-67
2022/08/30 05:28:45;;;;;;;15.70;14.67;;;17.60;99.90;;;;;;5047404;28;20462;-67
2022/08/30 05:31:17;;;;;;;17.57;15.97;;;17.60;99.90;;;;;;5040953;28;20508;-68
2022/08/30 05:33:44;;;;;;;16.67;14.70;;;17.70;99.90;;;;;;5044653;28;20468;-66
2022/08/30 05:36:12;;;;;;;17.73;16.07;;;17.70;99.90;;;;;;5046263;28;20473;-68
2022/08/30 05:38:40;;;;;;;16.53;15.30;;;17.70;99.90;;;;;;5045655;28;21113;-67
2022/08/30 05:41:07;;;;;;;16.20;14.97;;;17.70;99.90;;;;;;5046339;28;20469;-68
2022/08/30 05:43:36;;;;;;;17.33;15.73;;;17.80;99.90;;;;;;5046179;28;20475;-68
2022/08/30 05:46:05;;;;;;;16.87;15.47;;;17.90;99.90;;;;;;5045122;28;20516;-67
2022/08/30 05:48:32;;;;;;;17.50;16.10;;;17.90;99.90;;;;;;5048500;28;21208;-68
2022/08/30 05:51:07;;;;;;;17.23;15.83;;;17.90;99.90;;;;;;5046599;28;22364;-68
2022/08/30 05:53:35;;;;;;;16.90;15.83;;;17.90;99.90;;;;;;5051722;28;21073;-68
2022/08/30 05:56:03;;;;;;;16.50;15.30;;;17.90;99.90;;;;;;5046080;28;20466;-67
2022/08/30 05:58:31;;;;;;;17.90;16.23;;;18.10;99.90;;;;;;5046601;28;20486;-68
2022/08/30 06:01:00;;;;;;;16.87;15.57;;;18.10;99.90;;;;;;5043458;28;20487;-68
2022/08/30 06:03:27;;;;;;;16.70;15.50;;;18.00;99.90;;;;;;5044952;28;20467;-67
2022/08/30 06:05:54;;;;;;;16.93;15.83;;;18.10;99.90;;;;;;5045372;28;20936;-67
2022/08/30 06:08:21;;;;;;;16.83;15.60;;;18.20;99.90;;;;;;5045173;28;21249;-68
2022/08/30 06:10:48;;;;;;;16.50;15.50;;;18.20;99.90;;;;;;5045480;28;20467;-67
2022/08/30 06:13:15;;;;;;;17.33;16.23;;;18.40;99.90;;;;;;5043030;28;20461;-67
2022/08/30 06:15:43;;;;;;;18.17;16.77;;;18.50;99.90;;;;;;5046427;28;20483;-67
2022/08/30 06:18:12;;;;;;;17.10;15.70;;;18.60;99.90;;;;;;5044758;28;21170;-68
2022/08/30 06:20:41;;;;;;;16.63;15.67;;;18.60;99.90;;;;;;5046512;28;20463;-66
2022/08/30 06:23:08;;;;;;;17.17;15.87;;;18.60;99.90;;;;;;5048402;28;21224;-67
2022/08/30 06:25:36;;;;;;;16.70;15.50;;;18.60;99.90;;;;;;5047870;28;20462;-67
2022/08/30 06:28:05;;;;;;;17.13;15.83;;;18.70;99.90;;;;;;5046935;28;20561;-66
2022/08/30 06:30:32;;;;;;;18.40;16.83;;;18.70;99.90;;;;;;5048958;28;20652;-68
2022/08/30 06:32:59;;;;;;;17.30;16.10;;;18.80;99.90;;;;;;5053063;28;20991;-67
2022/08/30 06:35:28;;;;;;;16.80;15.73;;;18.90;99.90;;;;;;5073762;28;20465;-67
2022/08/30 06:37:56;;;;;;;17.83;16.30;;;19.00;99.90;;;;;;5060582;28;20587;-67
2022/08/30 06:40:23;;;;;;;17.83;16.50;;;19.20;99.90;;;;;;5045779;28;20457;-67
2022/08/30 06:42:50;;;;;;;17.50;16.40;;;19.30;99.90;;;;;;5046450;28;20451;-67
2022/08/30 06:45:17;;;;;;;17.50;15.90;;;19.50;99.90;;;;;;5047538;28;20486;-67
2022/08/30 06:47:44;;;;;;;18.80;17.10;;;19.70;99.90;;;;;;5047007;28;20478;-68
2022/08/30 06:50:12;;;;;;;18.17;16.77;;;19.90;99.90;;;;;;5045307;28;20467;-67
2022/08/30 06:52:41;;;;;;;18.27;16.57;;;19.90;99.90;;;;;;5047126;28;20478;-68
2022/08/30 06:55:09;;;;;;;18.77;17.20;;;20.00;99.90;;;;;;5046269;28;20454;-68
2022/08/30 06:57:36;;;;;;;18.40;17.10;;;20.20;99.90;;;;;;5045357;28;20522;-68
2022/08/30 07:00:06;;;;;;;17.80;16.50;;;20.30;99.90;;;;;;5045957;28;21067;-68
2022/08/30 07:02:33;;;;;;;19.10;17.67;;;20.50;99.90;;;;;;5043892;28;20474;-68
2022/08/30 07:05:01;;;;;;;18.47;17.17;;;20.40;99.90;;;;;;5047330;28;20471;-67
2022/08/30 07:07:28;;;;;;;18.00;16.80;;;20.40;99.90;;;;;;5046547;28;20462;-68
2022/08/30 07:09:56;;;;;;;18.07;16.80;;;20.50;99.90;;;;;;5044346;28;20473;-68
2022/08/30 07:12:23;;;;;;;18.40;16.93;;;20.80;99.90;;;;;;5043777;28;21231;-68
2022/08/30 07:14:50;;;;;;;18.53;17.23;;;21.20;99.90;;;;;;5043909;28;20473;-68
2022/08/30 07:20:01;;;;;;;19.50;17.93;;;21.50;99.90;;;;;;5046909;28;21071;-68
2022/08/30 07:22:28;;;;;;;18.60;17.20;;;21.80;99.90;;;;;;5045795;28;21091;-68
2022/08/30 07:24:56;;;;;;;18.80;17.57;;;21.70;99.90;;;;;;5046183;28;20463;-68
2022/08/30 07:27:23;;;;;;;19.73;17.77;;;21.80;99.90;;;;;;5042874;28;20992;-67
2022/08/30 07:29:50;;;;;;;19.13;17.80;;;21.60;99.90;;;;;;5044393;28;20546;-68
2022/08/30 07:32:17;;;;;;;18.97;17.30;;;21.70;99.90;;;;;;5047888;28;20474;-67
2022/08/30 07:34:44;;;;;;;18.73;17.53;;;21.50;99.90;;;;;;5048284;28;20500;-68
2022/08/30 07:37:11;;;;;;;19.00;17.70;;;21.60;99.90;;;;;;5049172;28;20485;-68
2022/08/30 07:39:38;;;;;;;20.07;18.03;;;21.50;99.90;;;;;;5049995;28;20543;-68
2022/08/30 07:42:06;;;;;;;18.87;17.40;;;21.60;99.90;;;;;;5049310;28;20505;-68
2022/08/30 07:44:33;;;;;;;19.27;17.87;;;21.80;99.90;;;;;;5050041;28;20955;-68
2022/08/30 07:47:00;;;;;;;25.30;18.13;;;21.70;99.90;;;;;;5050092;28;20957;-68
2022/08/30 07:49:26;;;;;;;18.77;17.57;;;21.80;99.90;;;;;;5049239;28;20489;-69
2022/08/30 07:51:53;;;;;;;19.30;17.80;;;21.80;99.90;;;;;;5048852;28;20474;-68
2022/08/30 07:54:20;;;;;;;19.00;17.60;;;21.80;99.90;;;;;;5047388;28;20455;-67
2022/08/30 07:56:47;;;;;;;20.30;18.37;;;21.90;99.90;;;;;;5049785;28;20470;-68
2022/08/30 07:59:16;;;;;;;19.27;17.67;;;21.90;99.90;;;;;;5049744;28;20868;-68
2022/08/30 08:01:57;;;;;;;19.27;17.87;;;21.90;99.90;;;;;;5048116;28;20474;-68
2022/08/30 08:04:24;;;;;;;18.40;17.30;;;21.90;99.90;;;;;;5047506;28;20448;-68
2022/08/30 08:06:51;;;;;;;20.60;18.83;;;22.00;99.90;;;;;;5049060;28;20454;-69
2022/08/30 08:09:18;;;;;;;19.13;17.23;;;22.10;99.90;;;;;;5048912;28;20455;-68
2022/08/30 08:11:45;;;;;;;19.63;18.23;;;22.30;99.90;;;;;;5050321;28;20513;-68
2022/08/30 08:14:12;;;;;;;18.87;17.57;;;22.40;99.90;;;;;;5049897;28;20514;-68
2022/08/30 08:16:41;;;;;;;19.73;18.00;;;22.30;99.90;;;;;;5047930;28;20497;-68
2022/08/30 08:19:08;;;;;;;21.17;19.20;;;22.60;99.90;;;;;;5049928;28;21270;-67
2022/08/30 08:21:35;;;;;;;19.43;17.90;;;22.60;99.90;;;;;;5048487;28;20459;-68
2022/08/30 08:24:03;;;;;;;19.23;17.73;;;23.00;99.90;;;;;;5049610;28;20496;-68
2022/08/30 08:26:30;;;;;;;20.03;18.53;;;23.20;99.90;;;;;;5049562;28;20473;-68
2022/08/30 08:28:57;;;;;;;20.57;18.67;;;23.10;99.90;;;;;;5046838;28;21051;-69
2022/08/30 08:31:27;;;;;;;18.87;17.57;;;23.10;99.90;;;;;;5048514;28;20959;-68
2022/08/30 08:33:57;;;;;;;19.20;17.80;;;23.00;99.90;;;;;;5048429;28;20471;-68
2022/08/30 08:36:24;;;;;;;19.33;18.03;;;23.20;99.90;;;;;;5051632;28;20822;-67
2022/08/30 08:38:51;;;;;;;19.40;18.00;;;23.50;99.90;;;;;;5050305;28;21616;-68
2022/08/30 08:41:34;;;;;;;21.07;18.90;;;23.40;99.90;;;;;;5049851;28;20868;-68
2022/08/30 08:44:08;;;;;;;19.50;18.10;;;23.50;99.90;;;;;;5050487;28;20641;-69
2022/08/30 08:46:40;;;;;;;20.83;18.80;;;23.70;99.90;;;;;;5049865;28;20460;-68
2022/08/30 08:49:10;;;;;;;18.87;17.60;;;23.70;99.90;;;;;;5050335;28;21118;-68
2022/08/30 08:54:35;;;;;;;20.40;18.67;;;23.70;99.90;;;;;;5075307;28;20469;-67
2022/08/30 08:57:02;;;;;;;19.37;18.00;;;23.90;99.90;;;;;;5058905;28;20540;-68
2022/08/30 08:59:30;;;;;;;18.33;16.97;;;24.10;99.90;;;;;;5062771;28;20491;-68
2022/08/30 09:02:01;;;;;;;19.33;18.00;;;24.10;99.90;;;;;;5079211;28;20463;-67
2022/08/30 09:04:34;;;;;;;19.37;17.80;;;24.40;99.90;;;;;;5081607;28;20509;-68
2022/08/30 09:07:04;;;;;;;19.97;18.57;;;24.70;99.90;;;;;;5047516;28;20470;-68
2022/08/30 09:09:34;;;;;;;19.87;18.23;;;24.80;99.90;;;;;;5049605;28;20466;-67
2022/08/30 09:12:01;;;;;;;19.60;18.23;;;25.00;99.90;;;;;;5048273;28;20459;-68
2022/08/30 09:14:33;;;;;;;18.50;17.40;;;25.70;99.90;;;;;;5049452;28;20489;-68
2022/08/30 09:17:02;;;;;;;18.93;17.63;;;26.00;99.90;;;;;;5046041;28;20485;-68
2022/08/30 09:19:40;;;;;;;19.20;18.10;;;26.30;99.90;;;;;;5047673;28;20498;-69
2022/08/30 09:22:21;;;;;;;19.60;17.83;;;26.60;99.90;;;;;;5066743;28;20466;-68
2022/08/30 09:24:51;;;;;;;19.13;17.43;;;26.70;99.90;;;;;;5074907;28;20469;-68
2022/08/30 09:27:25;;;;;;;19.83;18.30;;;26.50;99.90;;;;;;5065518;28;20713;-69
2022/08/30 09:29:58;;;;;;;19.10;17.40;;;27.00;99.90;;;;;;5050015;28;21461;-69
2022/08/30 09:32:31;;;;;;;19.50;17.70;;;27.00;99.90;;;;;;5048080;28;20459;-68
2022/08/30 09:35:00;;;;;;;18.03;16.83;;;26.30;99.90;;;;;;5046497;28;20470;-68
2022/08/30 09:37:37;;;;;;;19.40;18.10;;;26.20;99.90;;;;;;5046100;28;20458;-69
2022/08/30 09:40:11;;;;;;;18.73;17.37;;;25.50;99.90;;;;;;5046712;28;20494;-69
2022/08/30 09:42:39;;;;;;;20.10;18.70;;;25.40;99.90;;;;;;5049649;28;20518;-68
2022/08/30 09:45:19;;;;;;;17.33;16.37;;;25.10;99.90;;;;;;5049480;28;20451;-68
2022/08/30 09:47:46;;;;;;;19.53;18.03;;;25.40;99.90;;;;;;5049286;28;20561;-68
2022/08/30 09:50:17;;;;;;;18.30;17.30;;;25.70;99.90;;;;;;5048876;28;20451;-68
2022/08/30 09:53:00;;;;;;;18.40;17.13;;;26.50;99.90;;;;;;5047436;28;20455;-69
2022/08/30 09:55:51;;;;;;;17.90;16.60;;;26.50;99.90;;;;;;5082248;28;20466;-69
2022/08/30 09:58:24;;;;;;;17.63;16.60;;;27.00;99.20;;;;;;5065501;28;20490;-69
2022/08/30 10:00:59;;;;;;;18.60;17.40;;;26.70;98.90;;;;;;5049263;28;21100;-68
2022/08/30 10:03:32;;;;;;;17.80;16.80;;;26.60;99.10;;;;;;5049214;28;20836;-68
2022/08/30 10:06:09;;;;;;;18.93;17.63;;;26.90;98.40;;;;;;5049266;28;21064;-69
2022/08/30 10:08:46;;;;;;;18.53;17.00;;;26.90;97.50;;;;;;5048967;28;20458;-68
2022/08/30 10:11:20;;;;;;;18.97;17.67;;;26.50;97.90;;;;;;5049686;28;20756;-69
2022/08/30 10:14:05;;;;;;;18.23;17.00;;;26.80;97.70;;;;;;5048087;28;20480;-69
2022/08/30 10:16:42;;;;;;;18.43;17.33;;;26.90;96.90;;;;;;5047967;28;20498;-68
2022/08/30 10:19:20;;;;;;;18.40;17.30;;;27.30;96.70;;;;;;5047521;28;21056;-69
2022/08/30 10:21:54;;;;;;;18.33;17.33;;;27.00;96.70;;;;;;5048172;28;20463;-69
2022/08/30 10:24:27;;;;;;;18.13;16.83;;;26.90;96.30;;;;;;5048280;28;20552;-68
2022/08/30 10:26:59;;;;;;;17.93;16.97;;;26.70;95.70;;;;;;5047081;28;21101;-68
2022/08/30 10:29:31;;;;;;;17.83;16.67;;;27.60;95.80;;;;;;5047842;28;21106;-69
2022/08/30 10:32:04;;;;;;;18.60;17.20;;;28.20;94.60;;;;;;5047190;28;20458;-70
2022/08/30 10:34:36;;;;;;;18.47;17.13;;;29.00;93.50;;;;;;5048647;28;20493;-69
2022/08/30 10:37:09;;;;;;;19.40;18.10;;;29.10;92.60;;;;;;5047907;28;21071;-70
2022/08/30 10:39:41;;;;;;;18.37;16.73;;;29.20;91.30;;;;;;5048111;28;20509;-68
2022/08/30 10:42:12;;;;;;;18.07;16.93;;;29.00;90.90;;;;;;5048754;28;20843;-69
2022/08/30 10:44:44;;;;;;;16.90;15.73;;;28.90;91.50;;;;;;5049306;28;20462;-69
2022/08/30 10:47:22;;;;;;;17.70;16.60;;;28.80;91.40;;;;;;5044829;28;20951;-68
2022/08/30 10:49:53;;;;;;;17.90;16.60;;;29.10;90.40;;;;;;5047373;28;20696;-68
2022/08/30 10:52:29;;;;;;;18.37;17.07;;;29.90;90.00;;;;;;5048323;28;20475;-69
2022/08/30 10:55:01;;;;;;;19.00;17.50;;;30.10;87.10;;;;;;5047631;28;20636;-69
2022/08/30 10:57:28;;;;;;;17.37;16.47;;;29.60;87.40;;;;;;5047633;28;20553;-69
2022/08/30 10:59:59;;;;;;;17.13;16.13;;;29.40;87.10;;;;;;5048640;28;20986;-69
2022/08/30 11:02:51;;;;;;;18.10;16.97;;;29.40;86.90;;;;;;5049606;28;20451;-69
2022/08/30 11:05:49;;;;;;;18.40;16.77;;;29.80;85.80;;;;;;5047292;28;20462;-68
2022/08/30 11:08:37;;;;;;;17.87;16.83;;;30.20;82.60;;;;;;5028458;28;20760;-69
2022/08/30 11:11:15;;;;;;;17.00;16.10;;;30.40;82.90;;;;;;5050690;28;20597;-68
2022/08/30 11:13:44;;;;;;;18.00;17.00;;;30.50;80.20;;;;;;5051137;28;20479;-69
2022/08/30 11:16:16;;;;;;;17.70;16.70;;;30.20;79.20;;;;;;5039454;28;20491;-69
2022/08/30 11:18:46;;;;;;;18.83;16.90;;;30.80;78.80;;;;;;5032252;28;20560;-68
2022/08/30 11:21:20;;;;;;;17.17;16.00;;;30.90;76.50;;;;;;5033559;28;20494;-69
2022/08/30 11:24:04;;;;;;;17.10;15.70;;;30.80;76.00;;;;;;5032303;28;20536;-69
2022/08/30 11:26:56;;;;;;;17.43;16.10;;;30.80;72.90;;;;;;5032065;28;20461;-69
2022/08/30 11:29:44;;;;;;;17.67;15.90;;;30.70;73.60;;;;;;5031400;28;20472;-68
2022/08/30 11:32:59;;;;;;;16.70;15.77;;;30.50;73.90;;;;;;5024701;28;20510;-68
2022/08/30 11:35:37;;;;;;;16.17;15.37;;;30.40;74.30;;;;;;5031527;28;21069;-69
2022/08/30 11:38:13;;;;;;;17.47;16.47;;;30.30;74.20;;;;;;5032428;28;20450;-69
2022/08/30 11:40:48;;;;;;;18.80;17.50;;;30.90;71.20;;;;;;5032043;28;20840;-68
2022/08/30 11:43:54;;;;;;;17.20;16.13;;;30.30;70.70;;;;;;5031991;28;20465;-68
2022/08/30 11:46:35;;;;;;;16.67;15.47;;;30.00;71.10;;;;;;5032346;28;20471;-69
2022/08/30 11:49:21;;;;;;;17.30;16.00;;;30.30;70.10;;;;;;5031647;28;20465;-67
2022/08/30 11:52:11;;;;;;;17.97;16.87;;;31.00;67.60;;;;;;5032223;28;20900;-69
2022/08/30 11:54:51;;;;;;;17.93;16.87;;;31.40;65.90;;;;;;5031687;28;20463;-70
2022/08/30 11:57:27;;;;;;;18.20;17.13;;;31.20;62.80;;;;;;5030414;28;20472;-69
2022/08/30 12:00:04;;;;;;;16.87;15.73;;;31.00;64.50;;;;;;5031515;28;20525;-68
2022/08/30 12:02:47;;;;;;;17.20;15.93;;;31.30;64.20;;;;;;5029864;28;21134;-69
2022/08/30 12:05:50;;;;;;;18.20;16.77;;;31.80;63.30;;;;;;5031315;28;20476;-68
2022/08/30 12:08:43;;;;;;;17.20;16.07;;;31.60;61.70;;;;;;5029691;28;20934;-69
2022/08/30 12:11:40;;;;;;;16.60;15.60;;;32.00;61.60;;;;;;5031416;28;20462;-68
2022/08/30 12:14:33;;;;;;;17.33;16.27;;;31.80;61.10;;;;;;5013617;28;20511;-70
2022/08/30 12:19:49;;;;;;;16.27;15.40;;;31.70;59.90;;;;;;5051193;28;20928;-69
2022/08/30 12:22:17;;;;;;;17.93;16.63;;;31.70;59.40;;;;;;5051380;28;20461;-69
2022/08/30 12:24:50;;;;;;;18.17;16.73;;;32.00;58.20;;;;;;5053529;28;20473;-68
2022/08/30 12:27:23;;;;;;;17.33;16.43;;;31.60;57.90;;;;;;5051736;28;20473;-69
2022/08/30 12:29:53;;;;;;;17.87;16.27;;;31.50;58.30;;;;;;5051005;28;20481;-69
2022/08/30 12:32:21;;;;;;;18.10;16.77;;;31.60;58.10;;;;;;5051218;28;20463;-69
2022/08/30 12:34:53;;;;;;;16.73;15.93;;;31.90;57.00;;;;;;5048510;28;20470;-69
2022/08/30 12:37:23;;;;;;;17.07;16.03;;;31.90;56.50;;;;;;5048995;28;20458;-69
2022/08/30 12:40:01;;;;;;;17.13;15.93;;;32.20;56.30;;;;;;5049140;28;20471;-68
2022/08/30 12:42:30;;;;;;;16.80;15.70;;;32.00;56.50;;;;;;5049000;28;20493;-69
2022/08/30 12:45:01;;;;;;;16.63;15.63;;;32.60;54.90;;;;;;5049437;28;20465;-70
2022/08/30 12:47:34;;;;;;;17.23;15.87;;;32.20;54.20;;;;;;5047408;28;20470;-68
2022/08/30 12:50:03;;;;;;;17.50;16.20;;;32.10;55.40;;;;;;5056489;28;20458;-69
2022/08/30 12:52:35;;;;;;;17.20;16.00;;;33.10;54.30;;;;;;5079229;28;20545;-69
2022/08/30 12:55:11;;;;;;;17.47;16.33;;;32.70;53.70;;;;;;5076964;28;20466;-69